sensor_id;sensor_type;location;lat;lon;timestamp;P1;durP1;ratioP1;P2;durP2;ratioP2
10059;SDS011;5069;49.306;8.636;2023-02-01T00:02:36;4.40;;;3.30;;
10059;SDS011;5069;49.306;8.636;2023-02-01T00:05:40;4.03;;;3.20;;
10059;SDS011;5069;49.306;8.636;2023-02-01T00:08:42;4.50;;;3.40;;
10059;SDS011;5069;49.306;8.636;2023-02-01T00:11:43;3.77;;;3.20;;
10059;SDS011;5069;49.306;8.636;2023-02-01T00:14:45;5.40;;;3.30;;
10059;SDS011;5069;49.306;8.636;2023-02-01T00:17:47;5.27;;;3.57;;
10059;SDS011;5069;49.306;8.636;2023-02-01T00:20:48;4.60;;;3.80;;
10059;SDS011;5069;49.306;8.636;2023-02-01T00:23:50;4.97;;;3.37;;
10059;SDS011;5069;49.306;8.636;2023-02-01T00:26:51;4.87;;;3.17;;
10059;SDS011;5069;49.306;8.636;2023-02-01T00:29:54;4.47;;;3.30;;
10059;SDS011;5069;49.306;8.636;2023-02-01T00:32:56;5.53;;;3.80;;
10059;SDS011;5069;49.306;8.636;2023-02-01T00:35:58;4.87;;;3.50;;
10059;SDS011;5069;49.306;8.636;2023-02-01T00:39:04;5.30;;;3.50;;
10059;SDS011;5069;49.306;8.636;2023-02-01T00:42:05;8.23;;;3.27;;
10059;SDS011;5069;49.306;8.636;2023-02-01T00:45:07;4.53;;;3.33;;
10059;SDS011;5069;49.306;8.636;2023-02-01T00:48:09;7.17;;;3.70;;
10059;SDS011;5069;49.306;8.636;2023-02-01T00:51:12;4.07;;;3.33;;
10059;SDS011;5069;49.306;8.636;2023-02-01T00:54:15;5.67;;;3.77;;
10059;SDS011;5069;49.306;8.636;2023-02-01T00:57:17;5.17;;;3.77;;
10059;SDS011;5069;49.306;8.636;2023-02-01T01:00:18;4.13;;;3.63;;
10059;SDS011;5069;49.306;8.636;2023-02-01T01:03:20;5.13;;;4.17;;
10059;SDS011;5069;49.306;8.636;2023-02-01T01:06:23;6.03;;;4.40;;
10059;SDS011;5069;49.306;8.636;2023-02-01T01:09:26;5.80;;;4.13;;
10059;SDS011;5069;49.306;8.636;2023-02-01T01:12:29;5.67;;;4.37;;
10059;SDS011;5069;49.306;8.636;2023-02-01T01:15:30;5.10;;;3.93;;
10059;SDS011;5069;49.306;8.636;2023-02-01T01:18:32;5.13;;;3.80;;
10059;SDS011;5069;49.306;8.636;2023-02-01T01:21:34;5.57;;;3.90;;
10059;SDS011;5069;49.306;8.636;2023-02-01T01:24:36;5.30;;;3.70;;
10059;SDS011;5069;49.306;8.636;2023-02-01T01:27:37;6.50;;;3.33;;
10059;SDS011;5069;49.306;8.636;2023-02-01T01:30:39;7.57;;;3.83;;
10059;SDS011;5069;49.306;8.636;2023-02-01T01:33:40;3.57;;;3.10;;
10059;SDS011;5069;49.306;8.636;2023-02-01T01:36:42;4.67;;;3.40;;
10059;SDS011;5069;49.306;8.636;2023-02-01T01:39:44;4.43;;;2.90;;
10059;SDS011;5069;49.306;8.636;2023-02-01T01:42:45;4.00;;;3.07;;
10059;SDS011;5069;49.306;8.636;2023-02-01T01:45:48;4.03;;;3.13;;
10059;SDS011;5069;49.306;8.636;2023-02-01T01:48:53;4.27;;;3.27;;
10059;SDS011;5069;49.306;8.636;2023-02-01T01:51:59;3.17;;;2.83;;
10059;SDS011;5069;49.306;8.636;2023-02-01T01:55:03;5.07;;;3.30;;
10059;SDS011;5069;49.306;8.636;2023-02-01T01:58:06;5.03;;;3.33;;
10059;SDS011;5069;49.306;8.636;2023-02-01T02:01:11;5.67;;;3.60;;
10059;SDS011;5069;49.306;8.636;2023-02-01T02:04:12;5.33;;;3.30;;
10059;SDS011;5069;49.306;8.636;2023-02-01T02:07:16;5.37;;;3.57;;
10059;SDS011;5069;49.306;8.636;2023-02-01T02:10:21;6.93;;;3.93;;
10059;SDS011;5069;49.306;8.636;2023-02-01T02:13:45;6.93;;;3.90;;
10059;SDS011;5069;49.306;8.636;2023-02-01T02:16:58;4.70;;;3.50;;
10059;SDS011;5069;49.306;8.636;2023-02-01T02:27:51;4.73;;;3.27;;
10059;SDS011;5069;49.306;8.636;2023-02-01T02:31:25;5.57;;;3.20;;
10059;SDS011;5069;49.306;8.636;2023-02-01T02:34:54;4.93;;;3.73;;
10059;SDS011;5069;49.306;8.636;2023-02-01T02:38:15;4.10;;;3.40;;
10059;SDS011;5069;49.306;8.636;2023-02-01T02:44:57;4.40;;;3.10;;
10059;SDS011;5069;49.306;8.636;2023-02-01T02:48:42;4.67;;;3.17;;
10059;SDS011;5069;49.306;8.636;2023-02-01T02:52:15;4.10;;;3.10;;
10059;SDS011;5069;49.306;8.636;2023-02-01T02:55:56;4.07;;;3.10;;
10059;SDS011;5069;49.306;8.636;2023-02-01T02:59:19;5.50;;;3.20;;
10059;SDS011;5069;49.306;8.636;2023-02-01T03:02:43;3.80;;;3.27;;
10059;SDS011;5069;49.306;8.636;2023-02-01T03:06:08;5.30;;;3.13;;
10059;SDS011;5069;49.306;8.636;2023-02-01T03:09:21;3.30;;;2.87;;
10059;SDS011;5069;49.306;8.636;2023-02-01T03:12:28;3.80;;;3.03;;
10059;SDS011;5069;49.306;8.636;2023-02-01T03:16:09;5.00;;;3.00;;
10059;SDS011;5069;49.306;8.636;2023-02-01T03:22:22;5.23;;;3.57;;
10059;SDS011;5069;49.306;8.636;2023-02-01T03:25:28;4.07;;;3.50;;
10059;SDS011;5069;49.306;8.636;2023-02-01T03:28:33;5.67;;;3.50;;
10059;SDS011;5069;49.306;8.636;2023-02-01T03:31:39;5.07;;;3.80;;
10059;SDS011;5069;49.306;8.636;2023-02-01T03:34:42;5.50;;;3.80;;
10059;SDS011;5069;49.306;8.636;2023-02-01T03:37:45;7.10;;;3.63;;
10059;SDS011;5069;49.306;8.636;2023-02-01T03:40:48;7.00;;;4.60;;
10059;SDS011;5069;49.306;8.636;2023-02-01T03:47:06;5.73;;;4.10;;
10059;SDS011;5069;49.306;8.636;2023-02-01T03:50:18;6.27;;;3.90;;
10059;SDS011;5069;49.306;8.636;2023-02-01T03:53:26;7.50;;;4.43;;
10059;SDS011;5069;49.306;8.636;2023-02-01T03:56:30;6.30;;;3.53;;
10059;SDS011;5069;49.306;8.636;2023-02-01T03:59:34;5.80;;;4.40;;
10059;SDS011;5069;49.306;8.636;2023-02-01T04:02:40;8.73;;;4.37;;
10059;SDS011;5069;49.306;8.636;2023-02-01T04:05:42;8.37;;;4.60;;
10059;SDS011;5069;49.306;8.636;2023-02-01T04:08:44;7.07;;;4.03;;
10059;SDS011;5069;49.306;8.636;2023-02-01T04:11:45;6.50;;;3.50;;
10059;SDS011;5069;49.306;8.636;2023-02-01T04:14:47;6.60;;;3.73;;
10059;SDS011;5069;49.306;8.636;2023-02-01T04:17:48;4.10;;;3.27;;
10059;SDS011;5069;49.306;8.636;2023-02-01T04:20:49;4.87;;;3.67;;
10059;SDS011;5069;49.306;8.636;2023-02-01T04:23:51;5.27;;;4.03;;
10059;SDS011;5069;49.306;8.636;2023-02-01T04:26:53;5.13;;;3.70;;
10059;SDS011;5069;49.306;8.636;2023-02-01T04:29:54;4.87;;;3.40;;
10059;SDS011;5069;49.306;8.636;2023-02-01T04:32:58;5.33;;;3.73;;
10059;SDS011;5069;49.306;8.636;2023-02-01T04:36:00;6.23;;;3.43;;
10059;SDS011;5069;49.306;8.636;2023-02-01T04:39:01;6.03;;;3.53;;
10059;SDS011;5069;49.306;8.636;2023-02-01T04:42:03;4.03;;;3.03;;
10059;SDS011;5069;49.306;8.636;2023-02-01T04:45:05;4.30;;;3.47;;
10059;SDS011;5069;49.306;8.636;2023-02-01T04:48:07;4.43;;;2.90;;
10059;SDS011;5069;49.306;8.636;2023-02-01T04:51:08;6.10;;;2.97;;
10059;SDS011;5069;49.306;8.636;2023-02-01T04:54:11;5.83;;;3.23;;
10059;SDS011;5069;49.306;8.636;2023-02-01T04:57:12;7.00;;;3.63;;
10059;SDS011;5069;49.306;8.636;2023-02-01T05:00:16;4.73;;;3.00;;
10059;SDS011;5069;49.306;8.636;2023-02-01T05:03:18;5.07;;;2.80;;
10059;SDS011;5069;49.306;8.636;2023-02-01T05:06:19;4.10;;;3.10;;
10059;SDS011;5069;49.306;8.636;2023-02-01T05:09:21;4.53;;;3.33;;
10059;SDS011;5069;49.306;8.636;2023-02-01T05:12:22;3.40;;;2.70;;
10059;SDS011;5069;49.306;8.636;2023-02-01T05:15:42;3.80;;;2.63;;
10059;SDS011;5069;49.306;8.636;2023-02-01T05:18:44;4.33;;;2.80;;
10059;SDS011;5069;49.306;8.636;2023-02-01T05:21:46;4.73;;;3.07;;
10059;SDS011;5069;49.306;8.636;2023-02-01T05:24:48;5.87;;;2.63;;
10059;SDS011;5069;49.306;8.636;2023-02-01T05:27:49;3.37;;;2.53;;
10059;SDS011;5069;49.306;8.636;2023-02-01T05:30:50;4.33;;;2.80;;
10059;SDS011;5069;49.306;8.636;2023-02-01T05:33:52;4.20;;;2.87;;
10059;SDS011;5069;49.306;8.636;2023-02-01T05:36:53;4.47;;;2.73;;
10059;SDS011;5069;49.306;8.636;2023-02-01T05:39:55;4.73;;;2.77;;
10059;SDS011;5069;49.306;8.636;2023-02-01T05:42:56;4.83;;;2.77;;
10059;SDS011;5069;49.306;8.636;2023-02-01T05:45:58;4.33;;;2.50;;
10059;SDS011;5069;49.306;8.636;2023-02-01T05:48:59;5.13;;;3.17;;
10059;SDS011;5069;49.306;8.636;2023-02-01T05:52:01;5.17;;;2.83;;
10059;SDS011;5069;49.306;8.636;2023-02-01T05:55:03;5.30;;;2.97;;
10059;SDS011;5069;49.306;8.636;2023-02-01T05:58:05;3.80;;;3.07;;
10059;SDS011;5069;49.306;8.636;2023-02-01T06:01:06;6.10;;;3.23;;
10059;SDS011;5069;49.306;8.636;2023-02-01T06:04:08;6.17;;;3.13;;
10059;SDS011;5069;49.306;8.636;2023-02-01T06:07:09;3.57;;;2.90;;
10059;SDS011;5069;49.306;8.636;2023-02-01T06:10:11;5.20;;;2.93;;
10059;SDS011;5069;49.306;8.636;2023-02-01T06:13:12;6.37;;;3.07;;
10059;SDS011;5069;49.306;8.636;2023-02-01T06:16:14;5.30;;;3.17;;
10059;SDS011;5069;49.306;8.636;2023-02-01T06:19:16;4.80;;;3.40;;
10059;SDS011;5069;49.306;8.636;2023-02-01T06:22:18;7.87;;;3.50;;
10059;SDS011;5069;49.306;8.636;2023-02-01T06:25:19;4.57;;;3.27;;
10059;SDS011;5069;49.306;8.636;2023-02-01T06:28:22;5.87;;;3.20;;
10059;SDS011;5069;49.306;8.636;2023-02-01T06:31:24;6.83;;;3.83;;
10059;SDS011;5069;49.306;8.636;2023-02-01T06:34:27;4.80;;;3.50;;
10059;SDS011;5069;49.306;8.636;2023-02-01T06:37:28;5.90;;;3.83;;
10059;SDS011;5069;49.306;8.636;2023-02-01T06:40:30;5.40;;;3.60;;
10059;SDS011;5069;49.306;8.636;2023-02-01T06:43:32;5.77;;;3.87;;
10059;SDS011;5069;49.306;8.636;2023-02-01T06:46:33;5.40;;;3.53;;
10059;SDS011;5069;49.306;8.636;2023-02-01T06:49:35;6.67;;;4.40;;
10059;SDS011;5069;49.306;8.636;2023-02-01T06:52:36;7.60;;;4.00;;
10059;SDS011;5069;49.306;8.636;2023-02-01T06:55:38;8.97;;;4.67;;
10059;SDS011;5069;49.306;8.636;2023-02-01T06:58:39;7.43;;;4.67;;
10059;SDS011;5069;49.306;8.636;2023-02-01T07:01:41;5.33;;;3.93;;
10059;SDS011;5069;49.306;8.636;2023-02-01T07:04:42;11.10;;;4.30;;
10059;SDS011;5069;49.306;8.636;2023-02-01T07:07:44;6.03;;;4.30;;
10059;SDS011;5069;49.306;8.636;2023-02-01T07:10:45;7.03;;;4.77;;
10059;SDS011;5069;49.306;8.636;2023-02-01T07:13:47;6.70;;;4.70;;
10059;SDS011;5069;49.306;8.636;2023-02-01T07:16:49;4.93;;;4.13;;
10059;SDS011;5069;49.306;8.636;2023-02-01T07:19:50;8.83;;;4.70;;
10059;SDS011;5069;49.306;8.636;2023-02-01T07:22:55;8.50;;;3.93;;
10059;SDS011;5069;49.306;8.636;2023-02-01T07:25:59;7.50;;;3.60;;
10059;SDS011;5069;49.306;8.636;2023-02-01T07:29:03;8.40;;;3.60;;
10059;SDS011;5069;49.306;8.636;2023-02-01T07:32:04;8.47;;;3.40;;
10059;SDS011;5069;49.306;8.636;2023-02-01T07:35:06;8.37;;;3.67;;
10059;SDS011;5069;49.306;8.636;2023-02-01T07:38:08;6.80;;;3.70;;
10059;SDS011;5069;49.306;8.636;2023-02-01T07:41:09;12.10;;;4.87;;
10059;SDS011;5069;49.306;8.636;2023-02-01T07:44:11;10.00;;;4.60;;
10059;SDS011;5069;49.306;8.636;2023-02-01T07:47:12;10.20;;;5.27;;
10059;SDS011;5069;49.306;8.636;2023-02-01T07:50:14;10.07;;;4.33;;
10059;SDS011;5069;49.306;8.636;2023-02-01T07:53:15;9.13;;;4.70;;
10059;SDS011;5069;49.306;8.636;2023-02-01T07:56:17;9.83;;;5.20;;
10059;SDS011;5069;49.306;8.636;2023-02-01T07:59:20;12.50;;;6.07;;
10059;SDS011;5069;49.306;8.636;2023-02-01T08:02:21;11.60;;;5.33;;
10059;SDS011;5069;49.306;8.636;2023-02-01T08:05:23;10.50;;;4.87;;
10059;SDS011;5069;49.306;8.636;2023-02-01T08:08:24;10.73;;;5.27;;
10059;SDS011;5069;49.306;8.636;2023-02-01T08:11:26;10.27;;;5.00;;
10059;SDS011;5069;49.306;8.636;2023-02-01T08:14:28;14.13;;;5.00;;
10059;SDS011;5069;49.306;8.636;2023-02-01T08:17:30;12.13;;;4.93;;
10059;SDS011;5069;49.306;8.636;2023-02-01T08:20:31;13.47;;;5.70;;
10059;SDS011;5069;49.306;8.636;2023-02-01T08:23:35;11.00;;;5.07;;
10059;SDS011;5069;49.306;8.636;2023-02-01T08:26:38;12.57;;;5.10;;
10059;SDS011;5069;49.306;8.636;2023-02-01T08:29:40;12.90;;;5.53;;
10059;SDS011;5069;49.306;8.636;2023-02-01T08:32:41;10.57;;;4.93;;
10059;SDS011;5069;49.306;8.636;2023-02-01T08:35:42;12.43;;;4.83;;
10059;SDS011;5069;49.306;8.636;2023-02-01T08:38:44;14.70;;;6.00;;
10059;SDS011;5069;49.306;8.636;2023-02-01T08:41:46;18.13;;;5.20;;
10059;SDS011;5069;49.306;8.636;2023-02-01T08:45:08;15.77;;;5.23;;
10059;SDS011;5069;49.306;8.636;2023-02-01T08:48:09;13.53;;;5.10;;
10059;SDS011;5069;49.306;8.636;2023-02-01T08:51:11;14.47;;;5.27;;
10059;SDS011;5069;49.306;8.636;2023-02-01T08:54:14;12.83;;;5.40;;
10059;SDS011;5069;49.306;8.636;2023-02-01T08:57:16;15.53;;;5.20;;
10059;SDS011;5069;49.306;8.636;2023-02-01T09:00:18;13.97;;;6.03;;
10059;SDS011;5069;49.306;8.636;2023-02-01T09:03:19;13.33;;;4.90;;
10059;SDS011;5069;49.306;8.636;2023-02-01T09:06:21;12.97;;;5.60;;
10059;SDS011;5069;49.306;8.636;2023-02-01T09:09:22;12.00;;;4.80;;
10059;SDS011;5069;49.306;8.636;2023-02-01T09:12:24;9.37;;;5.07;;
10059;SDS011;5069;49.306;8.636;2023-02-01T09:15:26;10.80;;;4.43;;
10059;SDS011;5069;49.306;8.636;2023-02-01T09:18:27;12.23;;;4.50;;
10059;SDS011;5069;49.306;8.636;2023-02-01T09:21:29;10.87;;;4.20;;
10059;SDS011;5069;49.306;8.636;2023-02-01T09:24:30;15.93;;;3.90;;
10059;SDS011;5069;49.306;8.636;2023-02-01T09:27:32;13.03;;;3.93;;
10059;SDS011;5069;49.306;8.636;2023-02-01T09:30:33;12.43;;;3.97;;
10059;SDS011;5069;49.306;8.636;2023-02-01T09:33:35;9.73;;;3.90;;
10059;SDS011;5069;49.306;8.636;2023-02-01T09:36:36;11.83;;;3.90;;
10059;SDS011;5069;49.306;8.636;2023-02-01T09:39:38;10.07;;;3.47;;
10059;SDS011;5069;49.306;8.636;2023-02-01T09:42:52;9.70;;;3.80;;
10059;SDS011;5069;49.306;8.636;2023-02-01T09:49:20;16.53;;;5.40;;
10059;SDS011;5069;49.306;8.636;2023-02-01T09:53:01;12.40;;;4.37;;
10059;SDS011;5069;49.306;8.636;2023-02-01T09:56:04;11.90;;;4.20;;
10059;SDS011;5069;49.306;8.636;2023-02-01T10:02:33;10.93;;;4.27;;
10059;SDS011;5069;49.306;8.636;2023-02-01T10:05:51;10.40;;;3.40;;
10059;SDS011;5069;49.306;8.636;2023-02-01T10:09:11;14.33;;;3.83;;
10059;SDS011;5069;49.306;8.636;2023-02-01T10:19:47;13.73;;;3.47;;
10059;SDS011;5069;49.306;8.636;2023-02-01T10:22:45;13.67;;;3.40;;
10059;SDS011;5069;49.306;8.636;2023-02-01T10:26:15;16.17;;;3.80;;
10059;SDS011;5069;49.306;8.636;2023-02-01T10:29:22;12.90;;;3.70;;
10059;SDS011;5069;49.306;8.636;2023-02-01T10:32:32;12.90;;;3.23;;
10059;SDS011;5069;49.306;8.636;2023-02-01T10:35:38;12.07;;;3.13;;
10059;SDS011;5069;49.306;8.636;2023-02-01T10:38:43;14.93;;;3.13;;
10059;SDS011;5069;49.306;8.636;2023-02-01T10:41:45;9.63;;;2.90;;
10059;SDS011;5069;49.306;8.636;2023-02-01T10:44:48;11.33;;;3.07;;
10059;SDS011;5069;49.306;8.636;2023-02-01T10:47:50;13.27;;;3.30;;
10059;SDS011;5069;49.306;8.636;2023-02-01T10:50:54;16.27;;;3.27;;
10059;SDS011;5069;49.306;8.636;2023-02-01T10:54:00;10.23;;;3.00;;
10059;SDS011;5069;49.306;8.636;2023-02-01T11:00:26;16.60;;;3.10;;
10059;SDS011;5069;49.306;8.636;2023-02-01T11:03:36;11.50;;;2.90;;
10059;SDS011;5069;49.306;8.636;2023-02-01T11:06:40;9.27;;;3.03;;
10059;SDS011;5069;49.306;8.636;2023-02-01T11:09:48;9.43;;;3.23;;
10059;SDS011;5069;49.306;8.636;2023-02-01T11:12:55;13.17;;;2.97;;
10059;SDS011;5069;49.306;8.636;2023-02-01T11:15:56;8.40;;;2.60;;
10059;SDS011;5069;49.306;8.636;2023-02-01T11:18:58;9.63;;;2.90;;
10059;SDS011;5069;49.306;8.636;2023-02-01T11:22:00;13.77;;;3.37;;
10059;SDS011;5069;49.306;8.636;2023-02-01T11:25:06;14.43;;;3.37;;
10059;SDS011;5069;49.306;8.636;2023-02-01T11:28:10;11.57;;;3.80;;
10059;SDS011;5069;49.306;8.636;2023-02-01T11:31:12;11.77;;;3.00;;
10059;SDS011;5069;49.306;8.636;2023-02-01T11:34:20;15.13;;;3.20;;
10059;SDS011;5069;49.306;8.636;2023-02-01T11:37:38;13.27;;;3.23;;
10059;SDS011;5069;49.306;8.636;2023-02-01T11:40:42;14.07;;;3.47;;
10059;SDS011;5069;49.306;8.636;2023-02-01T11:43:51;12.93;;;3.17;;
10059;SDS011;5069;49.306;8.636;2023-02-01T11:57:10;14.90;;;3.17;;
10059;SDS011;5069;49.306;8.636;2023-02-01T12:07:15;16.37;;;3.00;;
10059;SDS011;5069;49.306;8.636;2023-02-01T12:10:28;13.83;;;3.17;;
10059;SDS011;5069;49.306;8.636;2023-02-01T12:14:01;11.87;;;2.80;;
10059;SDS011;5069;49.306;8.636;2023-02-01T12:17:38;11.97;;;2.77;;
10059;SDS011;5069;49.306;8.636;2023-02-01T12:21:04;12.53;;;2.93;;
10059;SDS011;5069;49.306;8.636;2023-02-01T12:30:52;10.03;;;2.90;;
10059;SDS011;5069;49.306;8.636;2023-02-01T12:41:07;12.97;;;3.30;;
10059;SDS011;5069;49.306;8.636;2023-02-01T12:51:29;14.90;;;3.37;;
10059;SDS011;5069;49.306;8.636;2023-02-01T12:57:46;13.20;;;2.80;;
10059;SDS011;5069;49.306;8.636;2023-02-01T13:00:58;9.27;;;3.23;;
10059;SDS011;5069;49.306;8.636;2023-02-01T13:07:14;11.70;;;2.80;;
10059;SDS011;5069;49.306;8.636;2023-02-01T13:10:39;11.40;;;2.70;;
10059;SDS011;5069;49.306;8.636;2023-02-01T13:13:46;9.90;;;2.93;;
10059;SDS011;5069;49.306;8.636;2023-02-01T13:16:59;10.60;;;2.70;;
10059;SDS011;5069;49.306;8.636;2023-02-01T13:23:37;12.23;;;3.53;;
10059;SDS011;5069;49.306;8.636;2023-02-01T13:26:40;12.23;;;2.73;;
10059;SDS011;5069;49.306;8.636;2023-02-01T13:29:47;12.37;;;2.80;;
10059;SDS011;5069;49.306;8.636;2023-02-01T13:43:35;10.53;;;3.00;;
10059;SDS011;5069;49.306;8.636;2023-02-01T13:46:41;10.60;;;2.27;;
10059;SDS011;5069;49.306;8.636;2023-02-01T13:49:44;14.57;;;2.70;;
10059;SDS011;5069;49.306;8.636;2023-02-01T13:52:51;12.97;;;2.90;;
10059;SDS011;5069;49.306;8.636;2023-02-01T13:55:57;12.10;;;2.60;;
10059;SDS011;5069;49.306;8.636;2023-02-01T13:58:59;15.77;;;2.97;;
10059;SDS011;5069;49.306;8.636;2023-02-01T14:08:45;11.57;;;2.97;;
10059;SDS011;5069;49.306;8.636;2023-02-01T14:11:52;15.47;;;2.80;;
10059;SDS011;5069;49.306;8.636;2023-02-01T14:15:16;10.23;;;2.60;;
10059;SDS011;5069;49.306;8.636;2023-02-01T14:21:49;9.30;;;2.93;;
10059;SDS011;5069;49.306;8.636;2023-02-01T14:24:59;9.37;;;2.53;;
10059;SDS011;5069;49.306;8.636;2023-02-01T14:28:01;9.33;;;2.43;;
10059;SDS011;5069;49.306;8.636;2023-02-01T14:31:14;11.00;;;2.70;;
10059;SDS011;5069;49.306;8.636;2023-02-01T14:34:29;14.13;;;2.97;;
10059;SDS011;5069;49.306;8.636;2023-02-01T14:37:36;11.50;;;2.33;;
10059;SDS011;5069;49.306;8.636;2023-02-01T14:40:40;9.83;;;2.63;;
10059;SDS011;5069;49.306;8.636;2023-02-01T14:43:51;13.20;;;2.40;;
10059;SDS011;5069;49.306;8.636;2023-02-01T14:50:30;8.60;;;2.63;;
10059;SDS011;5069;49.306;8.636;2023-02-01T14:53:41;15.77;;;2.90;;
10059;SDS011;5069;49.306;8.636;2023-02-01T14:56:45;12.37;;;2.50;;
10059;SDS011;5069;49.306;8.636;2023-02-01T14:59:47;13.93;;;2.70;;
10059;SDS011;5069;49.306;8.636;2023-02-01T15:02:56;10.67;;;3.00;;
10059;SDS011;5069;49.306;8.636;2023-02-01T15:06:26;11.13;;;2.93;;
10059;SDS011;5069;49.306;8.636;2023-02-01T15:09:45;11.10;;;2.50;;
10059;SDS011;5069;49.306;8.636;2023-02-01T15:12:49;13.17;;;2.47;;
10059;SDS011;5069;49.306;8.636;2023-02-01T15:19:08;8.30;;;2.23;;
10059;SDS011;5069;49.306;8.636;2023-02-01T15:22:18;9.20;;;2.63;;
10059;SDS011;5069;49.306;8.636;2023-02-01T15:25:21;12.90;;;2.90;;
10059;SDS011;5069;49.306;8.636;2023-02-01T15:28:26;12.13;;;2.50;;
10059;SDS011;5069;49.306;8.636;2023-02-01T15:31:31;14.23;;;2.30;;
10059;SDS011;5069;49.306;8.636;2023-02-01T15:34:45;13.83;;;2.70;;
10059;SDS011;5069;49.306;8.636;2023-02-01T15:37:49;11.07;;;2.20;;
10059;SDS011;5069;49.306;8.636;2023-02-01T15:41:14;9.63;;;2.57;;
10059;SDS011;5069;49.306;8.636;2023-02-01T15:44:19;11.67;;;2.50;;
10059;SDS011;5069;49.306;8.636;2023-02-01T15:47:41;8.27;;;2.20;;
10059;SDS011;5069;49.306;8.636;2023-02-01T15:50:48;10.60;;;2.80;;
10059;SDS011;5069;49.306;8.636;2023-02-01T15:53:53;10.97;;;2.40;;
10059;SDS011;5069;49.306;8.636;2023-02-01T15:56:58;10.13;;;2.03;;
10059;SDS011;5069;49.306;8.636;2023-02-01T16:00:05;15.03;;;2.90;;
10059;SDS011;5069;49.306;8.636;2023-02-01T16:03:25;10.43;;;2.67;;
10059;SDS011;5069;49.306;8.636;2023-02-01T16:06:53;11.03;;;2.40;;
10059;SDS011;5069;49.306;8.636;2023-02-01T16:09:58;11.83;;;2.23;;
10059;SDS011;5069;49.306;8.636;2023-02-01T16:13:07;12.10;;;2.70;;
10059;SDS011;5069;49.306;8.636;2023-02-01T16:16:09;14.13;;;3.17;;
10059;SDS011;5069;49.306;8.636;2023-02-01T16:19:15;12.03;;;2.93;;
10059;SDS011;5069;49.306;8.636;2023-02-01T16:22:16;14.60;;;3.13;;
10059;SDS011;5069;49.306;8.636;2023-02-01T16:25:18;11.10;;;3.00;;
10059;SDS011;5069;49.306;8.636;2023-02-01T16:28:19;11.80;;;2.63;;
10059;SDS011;5069;49.306;8.636;2023-02-01T16:31:21;10.77;;;3.20;;
10059;SDS011;5069;49.306;8.636;2023-02-01T16:34:28;8.80;;;2.90;;
10059;SDS011;5069;49.306;8.636;2023-02-01T16:37:29;11.87;;;2.90;;
10059;SDS011;5069;49.306;8.636;2023-02-01T16:40:33;15.50;;;3.17;;
10059;SDS011;5069;49.306;8.636;2023-02-01T16:43:35;11.60;;;3.10;;
10059;SDS011;5069;49.306;8.636;2023-02-01T16:46:40;15.33;;;2.80;;
10059;SDS011;5069;49.306;8.636;2023-02-01T16:49:44;16.27;;;2.73;;
10059;SDS011;5069;49.306;8.636;2023-02-01T16:52:46;13.07;;;2.87;;
10059;SDS011;5069;49.306;8.636;2023-02-01T16:55:47;9.70;;;3.10;;
10059;SDS011;5069;49.306;8.636;2023-02-01T16:58:50;14.60;;;3.07;;
10059;SDS011;5069;49.306;8.636;2023-02-01T17:01:51;8.70;;;2.43;;
10059;SDS011;5069;49.306;8.636;2023-02-01T17:04:53;8.60;;;2.90;;
10059;SDS011;5069;49.306;8.636;2023-02-01T17:07:55;10.67;;;2.70;;
10059;SDS011;5069;49.306;8.636;2023-02-01T17:10:59;10.63;;;2.60;;
10059;SDS011;5069;49.306;8.636;2023-02-01T17:14:09;9.93;;;2.90;;
10059;SDS011;5069;49.306;8.636;2023-02-01T17:17:19;14.80;;;2.63;;
10059;SDS011;5069;49.306;8.636;2023-02-01T17:20:38;10.63;;;2.50;;
10059;SDS011;5069;49.306;8.636;2023-02-01T17:23:39;12.43;;;2.63;;
10059;SDS011;5069;49.306;8.636;2023-02-01T17:26:41;11.93;;;3.03;;
10059;SDS011;5069;49.306;8.636;2023-02-01T17:29:44;13.43;;;3.13;;
10059;SDS011;5069;49.306;8.636;2023-02-01T17:32:47;10.57;;;2.73;;
10059;SDS011;5069;49.306;8.636;2023-02-01T17:35:49;11.07;;;2.73;;
10059;SDS011;5069;49.306;8.636;2023-02-01T17:38:51;11.70;;;3.03;;
10059;SDS011;5069;49.306;8.636;2023-02-01T17:42:07;13.50;;;2.87;;
10059;SDS011;5069;49.306;8.636;2023-02-01T17:45:24;9.93;;;2.60;;
10059;SDS011;5069;49.306;8.636;2023-02-01T17:48:34;10.40;;;2.80;;
10059;SDS011;5069;49.306;8.636;2023-02-01T17:51:36;9.67;;;2.90;;
10059;SDS011;5069;49.306;8.636;2023-02-01T17:54:38;10.17;;;3.10;;
10059;SDS011;5069;49.306;8.636;2023-02-01T17:57:40;7.23;;;2.93;;
10059;SDS011;5069;49.306;8.636;2023-02-01T18:00:41;10.97;;;3.70;;
10059;SDS011;5069;49.306;8.636;2023-02-01T18:03:44;12.77;;;4.60;;
10059;SDS011;5069;49.306;8.636;2023-02-01T18:06:45;13.57;;;2.87;;
10059;SDS011;5069;49.306;8.636;2023-02-01T18:09:47;9.43;;;3.33;;
10059;SDS011;5069;49.306;8.636;2023-02-01T18:12:48;8.70;;;2.90;;
10059;SDS011;5069;49.306;8.636;2023-02-01T18:15:50;12.77;;;3.27;;
10059;SDS011;5069;49.306;8.636;2023-02-01T18:18:51;10.67;;;2.90;;
10059;SDS011;5069;49.306;8.636;2023-02-01T18:21:53;15.87;;;3.70;;
10059;SDS011;5069;49.306;8.636;2023-02-01T18:24:57;10.37;;;2.63;;
10059;SDS011;5069;49.306;8.636;2023-02-01T18:27:58;11.67;;;2.60;;
10059;SDS011;5069;49.306;8.636;2023-02-01T18:31:00;9.07;;;2.77;;
10059;SDS011;5069;49.306;8.636;2023-02-01T18:34:03;12.23;;;3.50;;
10059;SDS011;5069;49.306;8.636;2023-02-01T18:37:04;11.37;;;3.40;;
10059;SDS011;5069;49.306;8.636;2023-02-01T18:40:06;17.93;;;3.43;;
10059;SDS011;5069;49.306;8.636;2023-02-01T18:43:11;13.47;;;3.00;;
10059;SDS011;5069;49.306;8.636;2023-02-01T18:46:14;12.70;;;2.93;;
10059;SDS011;5069;49.306;8.636;2023-02-01T18:49:15;7.23;;;2.77;;
10059;SDS011;5069;49.306;8.636;2023-02-01T18:52:18;14.77;;;3.20;;
10059;SDS011;5069;49.306;8.636;2023-02-01T18:55:20;13.10;;;3.00;;
10059;SDS011;5069;49.306;8.636;2023-02-01T18:58:23;14.80;;;4.17;;
10059;SDS011;5069;49.306;8.636;2023-02-01T19:01:26;7.47;;;2.80;;
10059;SDS011;5069;49.306;8.636;2023-02-01T19:04:27;15.07;;;3.33;;
10059;SDS011;5069;49.306;8.636;2023-02-01T19:07:30;9.17;;;2.90;;
10059;SDS011;5069;49.306;8.636;2023-02-01T19:10:32;11.90;;;2.93;;
10059;SDS011;5069;49.306;8.636;2023-02-01T19:13:34;14.13;;;3.33;;
10059;SDS011;5069;49.306;8.636;2023-02-01T19:16:36;12.20;;;2.80;;
10059;SDS011;5069;49.306;8.636;2023-02-01T19:19:40;14.53;;;3.77;;
10059;SDS011;5069;49.306;8.636;2023-02-01T19:22:42;9.13;;;2.90;;
10059;SDS011;5069;49.306;8.636;2023-02-01T19:25:44;11.10;;;3.23;;
10059;SDS011;5069;49.306;8.636;2023-02-01T19:28:47;13.70;;;2.87;;
10059;SDS011;5069;49.306;8.636;2023-02-01T19:31:49;10.07;;;2.93;;
10059;SDS011;5069;49.306;8.636;2023-02-01T19:34:50;11.23;;;3.20;;
10059;SDS011;5069;49.306;8.636;2023-02-01T19:37:52;12.20;;;3.30;;
10059;SDS011;5069;49.306;8.636;2023-02-01T19:40:56;10.63;;;3.30;;
10059;SDS011;5069;49.306;8.636;2023-02-01T19:43:58;12.37;;;2.50;;
10059;SDS011;5069;49.306;8.636;2023-02-01T19:46:59;12.47;;;3.47;;
10059;SDS011;5069;49.306;8.636;2023-02-01T19:50:01;11.53;;;3.00;;
10059;SDS011;5069;49.306;8.636;2023-02-01T19:53:07;12.13;;;3.33;;
10059;SDS011;5069;49.306;8.636;2023-02-01T19:56:08;9.80;;;3.10;;
10059;SDS011;5069;49.306;8.636;2023-02-01T19:59:10;10.23;;;2.80;;
10059;SDS011;5069;49.306;8.636;2023-02-01T20:02:13;10.17;;;2.70;;
10059;SDS011;5069;49.306;8.636;2023-02-01T20:05:15;9.20;;;2.23;;
10059;SDS011;5069;49.306;8.636;2023-02-01T20:08:18;11.93;;;3.00;;
10059;SDS011;5069;49.306;8.636;2023-02-01T20:11:19;12.83;;;2.20;;
10059;SDS011;5069;49.306;8.636;2023-02-01T20:14:21;14.77;;;3.30;;
10059;SDS011;5069;49.306;8.636;2023-02-01T20:17:25;13.40;;;3.10;;
10059;SDS011;5069;49.306;8.636;2023-02-01T20:20:26;19.37;;;3.57;;
10059;SDS011;5069;49.306;8.636;2023-02-01T20:23:29;14.53;;;2.60;;
10059;SDS011;5069;49.306;8.636;2023-02-01T20:26:31;10.87;;;3.00;;
10059;SDS011;5069;49.306;8.636;2023-02-01T20:29:34;10.93;;;3.00;;
10059;SDS011;5069;49.306;8.636;2023-02-01T20:32:36;16.83;;;2.73;;
10059;SDS011;5069;49.306;8.636;2023-02-01T20:35:42;10.50;;;3.17;;
10059;SDS011;5069;49.306;8.636;2023-02-01T20:38:44;14.17;;;3.20;;